createdAt,value
2022-11-20T00:01:34.283Z,27.70
2022-11-20T00:04:02.941Z,33.90
2022-11-20T00:06:31.473Z,31.10
2022-11-20T00:09:01.511Z,35.20
2022-11-20T00:11:31.376Z,32.90
2022-11-20T00:14:01.556Z,28.10
2022-11-20T00:16:32.900Z,24.40
2022-11-20T00:19:01.193Z,28.50
2022-11-20T00:21:31.051Z,23.20
2022-11-20T00:23:59.404Z,23.00
2022-11-20T00:26:29.235Z,21.40
2022-11-20T00:28:59.925Z,22.50
2022-11-20T00:31:28.662Z,20.30
2022-11-20T00:33:57.724Z,19.30
2022-11-20T00:36:28.169Z,14.90
2022-11-20T00:38:58.455Z,15.30
2022-11-20T00:41:29.792Z,17.40
2022-11-20T00:43:58.612Z,15.40
2022-11-20T00:46:28.839Z,15.00
2022-11-20T00:48:57.244Z,15.10
2022-11-20T00:51:27.927Z,14.40
2022-11-20T00:53:57.981Z,15.90
2022-11-20T00:56:26.028Z,15.50
2022-11-20T00:58:53.950Z,16.60
2022-11-20T01:01:25.379Z,13.40
2022-11-20T01:03:55.653Z,14.70
2022-11-20T01:06:29.904Z,12.70
2022-11-20T01:09:00.999Z,14.00
2022-11-20T01:11:31.694Z,13.10
2022-11-20T01:16:30.071Z,11.40
2022-11-20T01:19:00.780Z,8.30
2022-11-20T01:21:32.024Z,11.70
2022-11-20T01:24:03.103Z,12.60
2022-11-20T01:26:36.719Z,5.70
2022-11-20T01:29:05.606Z,6.90
2022-11-20T01:31:35.787Z,6.20
2022-11-20T01:34:10.640Z,9.70
2022-11-20T01:36:39.615Z,5.30
2022-11-20T01:39:13.424Z,5.10
2022-11-20T01:42:05.728Z,5.90
2022-11-20T01:44:54.402Z,5.40
2022-11-20T01:47:31.560Z,3.70
2022-11-20T01:50:34.821Z,4.90
2022-11-20T01:53:08.288Z,5.10
2022-11-20T01:55:42.931Z,3.70
2022-11-20T01:58:11.492Z,3.80
2022-11-20T02:00:39.745Z,4.00
2022-11-20T02:03:16.462Z,3.50
2022-11-20T02:06:12.587Z,5.00
2022-11-20T02:08:40.640Z,3.50
2022-11-20T02:11:08.533Z,3.50
2022-11-20T02:13:45.825Z,2.90
2022-11-20T02:16:35.264Z,3.00
2022-11-20T02:19:08.465Z,4.10
2022-11-20T02:22:26.092Z,3.20
2022-11-20T02:24:54.268Z,4.60
2022-11-20T02:27:23.624Z,5.30
2022-11-20T02:29:55.301Z,5.40
2022-11-20T02:32:29.456Z,3.80
2022-11-20T02:34:58.217Z,4.30
2022-11-20T02:37:35.778Z,3.20
2022-11-20T02:40:04.372Z,3.60
2022-11-20T02:42:32.188Z,4.20
2022-11-20T02:45:00.270Z,4.30
2022-11-20T02:47:28.305Z,4.40
2022-11-20T02:49:56.126Z,6.00
2022-11-20T02:52:24.334Z,6.30
2022-11-20T02:54:52.619Z,4.60
2022-11-20T02:57:20.510Z,5.40
2022-11-20T02:59:48.555Z,5.20
2022-11-20T03:02:17.499Z,5.70
2022-11-20T03:04:45.416Z,7.50
2022-11-20T03:07:13.487Z,10.40
2022-11-20T03:09:41.481Z,8.70
2022-11-20T03:12:10.045Z,8.50
2022-11-20T03:14:37.926Z,6.40
2022-11-20T03:17:05.952Z,6.20
2022-11-20T03:19:35.173Z,9.10
2022-11-20T03:22:02.993Z,6.50
2022-11-20T03:24:30.963Z,5.30
2022-11-20T03:26:59.115Z,6.00
2022-11-20T03:29:26.871Z,7.50
2022-11-20T03:31:54.995Z,7.80
2022-11-20T03:34:24.269Z,7.90
2022-11-20T03:36:52.500Z,10.80
2022-11-20T03:39:20.660Z,10.10
2022-11-20T03:41:48.998Z,8.30
2022-11-20T03:44:16.857Z,9.30
2022-11-20T03:46:44.872Z,7.90
2022-11-20T03:49:12.745Z,10.70
2022-11-20T03:51:41.214Z,11.20
2022-11-20T03:54:09.698Z,12.10
2022-11-20T03:56:40.456Z,11.00
2022-11-20T03:59:12.088Z,13.40
2022-11-20T04:01:42.115Z,13.00
2022-11-20T04:04:12.535Z,12.00
2022-11-20T04:06:40.959Z,12.70
2022-11-20T04:09:09.086Z,15.30
2022-11-20T04:11:40.476Z,13.10
2022-11-20T04:14:15.003Z,13.60
2022-11-20T04:16:43.451Z,11.20
2022-11-20T04:19:15.175Z,17.10
2022-11-20T04:21:44.851Z,18.00
2022-11-20T04:24:13.196Z,11.40
2022-11-20T04:26:41.922Z,14.30
2022-11-20T04:29:13.222Z,13.20
2022-11-20T04:31:41.162Z,12.30
2022-11-20T04:34:12.594Z,12.30
2022-11-20T04:36:41.175Z,13.40
2022-11-20T04:39:13.788Z,11.20
2022-11-20T04:41:42.365Z,12.70
2022-11-20T04:44:11.126Z,10.70
2022-11-20T04:46:43.583Z,10.80
2022-11-20T04:49:12.902Z,12.00
2022-11-20T04:51:40.847Z,11.50
2022-11-20T04:54:10.575Z,10.70
2022-11-20T04:56:38.401Z,10.00
2022-11-20T04:59:06.281Z,8.40
2022-11-20T05:01:34.694Z,10.40
2022-11-20T05:04:02.671Z,9.40
2022-11-20T05:06:30.563Z,8.40
2022-11-20T05:08:58.983Z,10.20
2022-11-20T05:11:30.109Z,11.60
2022-11-20T05:14:00.219Z,9.00
2022-11-20T05:16:28.377Z,9.00
2022-11-20T05:18:57.083Z,9.80
2022-11-20T05:21:25.162Z,8.30
2022-11-20T05:23:53.032Z,7.90
2022-11-20T05:26:23.028Z,10.80
2022-11-20T05:28:52.415Z,9.60
2022-11-20T05:31:27.151Z,10.60
2022-11-20T05:33:57.919Z,10.60
2022-11-20T05:36:26.522Z,11.30
2022-11-20T05:38:59.694Z,9.40
2022-11-20T05:41:29.775Z,10.10
2022-11-20T05:43:59.321Z,10.50
2022-11-20T05:46:29.273Z,10.90
2022-11-20T05:48:59.028Z,10.10
2022-11-20T05:51:27.651Z,8.30
2022-11-20T05:53:58.734Z,10.90
2022-11-20T05:56:26.942Z,10.70
2022-11-20T05:58:55.170Z,9.80
2022-11-20T06:01:25.576Z,9.00
2022-11-20T06:03:55.112Z,9.30
2022-11-20T06:06:23.782Z,8.70
2022-11-20T06:08:52.080Z,12.60
2022-11-20T06:11:19.992Z,14.30
2022-11-20T06:13:48.724Z,15.20
2022-11-20T06:16:22.987Z,14.40
2022-11-20T06:18:51.306Z,16.80
2022-11-20T06:21:21.734Z,16.30
2022-11-20T06:23:51.614Z,14.10
2022-11-20T06:26:25.599Z,13.30
2022-11-20T06:28:54.797Z,13.50
2022-11-20T06:31:25.011Z,13.90
2022-11-20T06:33:53.988Z,14.90
2022-11-20T06:36:23.604Z,14.50
2022-11-20T06:38:51.572Z,15.00
2022-11-20T06:41:22.167Z,15.40
2022-11-20T06:43:51.126Z,14.70
2022-11-20T06:46:21.215Z,14.20
2022-11-20T06:48:50.144Z,17.00
2022-11-20T06:51:18.245Z,19.40
2022-11-20T06:53:46.552Z,17.80
2022-11-20T06:56:14.952Z,15.50
2022-11-20T06:58:43.023Z,15.30
2022-11-20T07:01:13.844Z,15.70
2022-11-20T07:06:10.827Z,16.20
2022-11-20T07:08:39.657Z,11.70
2022-11-20T07:11:08.600Z,15.20
2022-11-20T07:13:36.607Z,12.10
2022-11-20T07:16:07.899Z,9.70
2022-11-20T07:18:36.718Z,12.40
2022-11-20T07:21:06.486Z,11.90
2022-11-20T07:23:35.918Z,11.90
2022-11-20T07:26:08.796Z,17.30
2022-11-20T07:28:37.469Z,13.80
2022-11-20T07:31:07.929Z,11.20
2022-11-20T07:33:36.112Z,10.00
2022-11-20T07:36:04.619Z,15.70
2022-11-20T07:38:32.826Z,12.10
2022-11-20T07:41:02.833Z,15.20
2022-11-20T07:43:31.353Z,12.10
2022-11-20T07:46:00.307Z,10.90
2022-11-20T07:48:28.356Z,11.90
2022-11-20T07:50:57.463Z,12.70
2022-11-20T07:53:25.841Z,13.90
2022-11-20T07:55:54.108Z,10.30
2022-11-20T07:58:23.007Z,10.80
2022-11-20T08:00:51.490Z,11.40
2022-11-20T08:03:24.718Z,13.00
2022-11-20T08:05:53.486Z,14.50
2022-11-20T08:08:22.529Z,8.40
2022-11-20T08:10:50.561Z,12.30
2022-11-20T08:13:36.669Z,13.20
2022-11-20T08:16:05.353Z,10.70
2022-11-20T08:18:33.399Z,12.60
2022-11-20T08:21:05.807Z,13.70
2022-11-20T08:23:34.120Z,11.60
2022-11-20T08:26:01.985Z,11.70
2022-11-20T08:28:29.963Z,15.40
2022-11-20T08:31:02.065Z,11.30
2022-11-20T08:33:30.944Z,13.40
2022-11-20T08:36:03.714Z,10.70
2022-11-20T08:38:33.260Z,12.70
2022-11-20T08:41:21.130Z,11.70
2022-11-20T08:43:49.500Z,10.80
2022-11-20T08:46:18.194Z,8.90
2022-11-20T08:48:46.876Z,10.60
2022-11-20T08:51:14.853Z,9.70
2022-11-20T08:53:43.227Z,8.80
2022-11-20T08:56:12.315Z,8.10
2022-11-20T08:59:09.870Z,9.70
2022-11-20T09:01:30.304Z,7.60
2022-11-20T09:03:58.822Z,9.50
2022-11-20T09:06:27.105Z,11.10
2022-11-20T09:08:56.007Z,7.80
2022-11-20T09:11:24.178Z,6.60
2022-11-20T09:13:52.371Z,7.90
2022-11-20T09:16:20.808Z,7.40
2022-11-20T09:19:02.235Z,6.60
2022-11-20T09:21:39.616Z,6.10
2022-11-20T09:24:08.173Z,7.00
2022-11-20T09:26:36.062Z,6.80
2022-11-20T09:29:04.090Z,5.80
2022-11-20T09:31:32.308Z,6.10
2022-11-20T09:34:00.367Z,5.70
2022-11-20T09:36:28.359Z,6.30
2022-11-20T09:38:57.424Z,5.00
2022-11-20T09:41:53.195Z,9.60
2022-11-20T09:44:46.214Z,19.90
2022-11-20T09:47:48.294Z,9.00
2022-11-20T09:50:33.689Z,8.00
2022-11-20T09:53:14.211Z,11.20
2022-11-20T09:55:42.956Z,11.00
2022-11-20T09:58:42.845Z,11.90
2022-11-20T10:01:28.180Z,9.50
2022-11-20T10:04:05.261Z,8.60
2022-11-20T10:07:17.208Z,11.10
2022-11-20T10:09:50.722Z,14.50
2022-11-20T10:12:40.003Z,10.50
2022-11-20T10:15:22.397Z,9.90
2022-11-20T10:18:05.758Z,13.80
2022-11-20T10:21:10.797Z,12.40
2022-11-20T10:23:50.368Z,9.80
2022-11-20T10:26:41.374Z,9.00
2022-11-20T10:29:19.721Z,7.30
2022-11-20T10:31:53.544Z,11.40
2022-11-20T10:34:27.149Z,7.60
2022-11-20T10:37:08.016Z,8.70
2022-11-20T10:42:46.014Z,4.40
2022-11-20T10:48:10.902Z,9.80
2022-11-20T10:50:48.171Z,9.50
2022-11-20T10:53:40.348Z,10.00
2022-11-20T10:56:36.708Z,15.70
2022-11-20T10:59:31.788Z,17.70
2022-11-20T11:02:02.667Z,21.30
2022-11-20T11:04:41.970Z,20.40
2022-11-20T11:07:22.365Z,23.60
2022-11-20T11:09:56.093Z,22.60
2022-11-20T11:12:30.098Z,22.80
2022-11-20T11:14:58.853Z,21.40
2022-11-20T11:17:28.512Z,23.40
2022-11-20T11:20:11.641Z,21.80
2022-11-20T11:22:52.629Z,26.10
2022-11-20T11:25:28.969Z,23.90
2022-11-20T11:28:01.282Z,28.10
2022-11-20T11:30:33.087Z,27.60
2022-11-20T11:33:13.089Z,27.20
2022-11-20T11:35:51.716Z,26.40
2022-11-20T11:38:38.195Z,28.70
2022-11-20T11:41:09.373Z,29.10
2022-11-20T11:43:57.301Z,31.00
2022-11-20T11:46:37.446Z,21.10
2022-11-20T11:51:52.406Z,33.80
2022-11-20T11:54:49.044Z,23.10
2022-11-20T11:57:17.278Z,22.00
2022-11-20T12:00:11.276Z,22.30
2022-11-20T12:02:45.780Z,24.00
2022-11-20T12:05:21.743Z,23.20
2022-11-20T12:07:55.300Z,23.20
2022-11-20T12:10:37.542Z,22.40
2022-11-20T12:13:16.466Z,26.50
2022-11-20T12:15:47.582Z,24.90
2022-11-20T12:18:24.569Z,17.80
2022-11-20T12:21:12.057Z,23.60
2022-11-20T12:23:40.541Z,24.10
2022-11-20T12:26:28.358Z,21.30
2022-11-20T12:29:22.704Z,24.50
2022-11-20T12:32:34.682Z,22.50
2022-11-20T12:35:24.140Z,21.70
2022-11-20T12:38:22.206Z,24.10
2022-11-20T12:41:36.288Z,25.40
2022-11-20T12:45:08.043Z,20.90
2022-11-20T12:48:00.343Z,21.10
2022-11-20T12:50:53.274Z,21.30
2022-11-20T12:53:39.089Z,17.10
2022-11-20T12:56:39.288Z,16.60
2022-11-20T12:59:07.479Z,15.80
2022-11-20T13:01:54.012Z,16.30
2022-11-20T13:04:34.827Z,15.60
2022-11-20T13:07:05.575Z,15.70
2022-11-20T13:09:38.072Z,17.10
2022-11-20T13:12:14.883Z,16.70
2022-11-20T13:15:12.832Z,14.50
2022-11-20T13:17:55.621Z,16.60
2022-11-20T13:20:23.681Z,14.30
2022-11-20T13:22:58.349Z,16.70
2022-11-20T13:25:29.241Z,17.50
2022-11-20T13:28:03.756Z,14.30
2022-11-20T13:30:32.573Z,14.90
2022-11-20T13:33:24.364Z,15.30
2022-11-20T13:36:03.605Z,13.40
2022-11-20T13:38:47.873Z,17.40
2022-11-20T13:41:32.401Z,15.80
2022-11-20T13:44:23.311Z,19.00
2022-11-20T13:49:26.062Z,17.30
2022-11-20T13:52:22.471Z,16.80
2022-11-20T13:55:03.347Z,16.10
2022-11-20T14:00:16.001Z,20.10
2022-11-20T14:02:49.613Z,16.00
2022-11-20T14:05:24.415Z,15.20
2022-11-20T14:07:55.146Z,13.60
2022-11-20T14:10:32.101Z,15.70
2022-11-20T14:13:16.846Z,19.30
2022-11-20T14:15:45.437Z,21.10
2022-11-20T14:18:17.078Z,17.20
2022-11-20T14:20:45.370Z,20.80
2022-11-20T14:23:13.700Z,18.50
2022-11-20T14:25:46.322Z,18.50
2022-11-20T14:28:25.702Z,16.90
2022-11-20T14:30:55.059Z,13.70
2022-11-20T14:33:26.224Z,15.20
2022-11-20T14:35:57.759Z,22.90
2022-11-20T14:38:29.281Z,31.40
2022-11-20T14:41:21.769Z,29.50
2022-11-20T14:43:58.268Z,27.10
2022-11-20T14:46:27.074Z,24.60
2022-11-20T14:48:58.076Z,26.30
2022-11-20T14:51:42.159Z,29.10
2022-11-20T14:54:19.145Z,29.10
2022-11-20T14:56:57.172Z,26.40
2022-11-20T14:59:27.349Z,23.80
2022-11-20T15:02:02.409Z,26.20
2022-11-20T15:04:30.621Z,23.00
2022-11-20T15:07:00.593Z,24.50
2022-11-20T15:09:28.484Z,24.80
2022-11-20T15:11:59.404Z,26.30
2022-11-20T15:14:29.279Z,19.30
2022-11-20T15:16:57.620Z,23.40
2022-11-20T15:19:27.650Z,24.20
2022-11-20T15:21:55.621Z,24.70
2022-11-20T15:24:23.743Z,20.20
2022-11-20T15:26:51.828Z,23.30
2022-11-20T15:29:21.995Z,24.30
2022-11-20T15:31:52.043Z,24.70
2022-11-20T15:34:20.654Z,29.70
2022-11-20T15:36:49.116Z,29.30
2022-11-20T15:39:17.251Z,32.80
2022-11-20T15:41:45.559Z,36.50
2022-11-20T15:44:13.669Z,42.80
2022-11-20T15:46:44.339Z,41.70
2022-11-20T15:51:48.927Z,35.30
2022-11-20T15:54:22.772Z,32.20
2022-11-20T15:56:55.444Z,27.10
2022-11-20T15:59:23.516Z,28.20
2022-11-20T16:01:51.704Z,32.20
2022-11-20T16:04:20.024Z,33.40
2022-11-20T16:06:48.191Z,34.10
2022-11-20T16:09:16.415Z,33.10
2022-11-20T16:11:44.300Z,30.70
2022-11-20T16:14:31.226Z,33.30
2022-11-20T16:16:59.384Z,31.70
2022-11-20T16:19:27.216Z,32.20
2022-11-20T16:22:01.206Z,31.50
2022-11-20T16:24:31.190Z,32.50
2022-11-20T16:26:59.350Z,32.60
2022-11-20T16:29:27.233Z,36.60
2022-11-20T16:31:55.424Z,31.70
2022-11-20T16:34:24.264Z,31.30
2022-11-20T16:36:52.224Z,31.00
2022-11-20T16:39:23.552Z,27.90
2022-11-20T16:41:52.616Z,29.30
2022-11-20T16:44:20.576Z,29.10
2022-11-20T16:46:48.412Z,32.00
2022-11-20T16:49:16.432Z,36.50
2022-11-20T16:51:44.350Z,39.80
2022-11-20T16:54:16.353Z,30.40
2022-11-20T16:56:48.211Z,33.00
2022-11-20T16:59:17.341Z,27.50
2022-11-20T17:01:45.300Z,29.00
2022-11-20T17:04:13.290Z,28.70
2022-11-20T17:06:44.455Z,25.50
2022-11-20T17:09:13.485Z,27.30
2022-11-20T17:11:42.410Z,28.20
2022-11-20T17:14:13.236Z,26.90
2022-11-20T17:19:09.625Z,25.10
2022-11-20T17:21:39.325Z,25.40
2022-11-20T17:24:12.482Z,34.30
2022-11-20T17:26:42.213Z,28.60
2022-11-20T17:29:16.085Z,32.70
2022-11-20T17:31:46.454Z,27.50
2022-11-20T17:34:15.668Z,31.80
2022-11-20T17:36:47.408Z,30.80
2022-11-20T17:39:17.287Z,34.50
2022-11-20T17:41:46.061Z,31.30
2022-11-20T17:44:14.090Z,38.80
2022-11-20T17:46:42.171Z,37.20
2022-11-20T17:49:10.288Z,40.40
2022-11-20T17:51:38.066Z,29.70
2022-11-20T17:54:09.131Z,32.90
2022-11-20T17:59:23.607Z,32.00
2022-11-20T18:01:51.444Z,36.80
2022-11-20T18:04:19.338Z,35.80
2022-11-20T18:06:47.180Z,35.70
2022-11-20T18:09:15.260Z,33.90
2022-11-20T18:11:44.036Z,39.80
2022-11-20T18:14:32.404Z,38.00
2022-11-20T18:17:05.595Z,38.80
2022-11-20T18:19:41.257Z,42.30
2022-11-20T18:22:17.821Z,48.90
2022-11-20T18:24:46.522Z,47.90
2022-11-20T18:27:20.148Z,45.50
2022-11-20T18:29:51.709Z,48.50
2022-11-20T18:32:21.768Z,43.40
2022-11-20T18:34:50.785Z,59.50
2022-11-20T18:37:19.305Z,51.00
2022-11-20T18:39:47.321Z,52.90
2022-11-20T18:42:35.590Z,46.10
2022-11-20T18:45:05.079Z,52.70
2022-11-20T18:47:40.460Z,49.70
2022-11-20T18:50:09.341Z,42.50
2022-11-20T18:52:42.333Z,47.40
2022-11-20T18:55:11.190Z,42.00
2022-11-20T18:57:39.275Z,44.00
2022-11-20T19:00:09.747Z,47.60
2022-11-20T19:02:42.270Z,41.40
2022-11-20T19:05:14.206Z,40.80
2022-11-20T19:07:42.514Z,39.30
2022-11-20T19:10:10.938Z,39.80
2022-11-20T19:12:39.318Z,40.80
2022-11-20T19:15:08.618Z,37.20
2022-11-20T19:17:36.601Z,43.20
2022-11-20T19:20:05.070Z,41.40
2022-11-20T19:22:33.156Z,42.10
2022-11-20T19:25:01.063Z,44.20
2022-11-20T19:27:29.490Z,41.80
2022-11-20T19:30:03.690Z,44.10
2022-11-20T19:32:32.624Z,39.20
2022-11-20T19:35:00.894Z,42.40
2022-11-20T19:37:29.046Z,42.80
2022-11-20T19:39:59.631Z,52.20
2022-11-20T19:44:58.275Z,33.00
2022-11-20T19:47:40.822Z,32.10
2022-11-20T19:50:16.380Z,36.60
2022-11-20T19:52:44.575Z,37.90
2022-11-20T19:55:12.588Z,35.20
2022-11-20T19:57:40.613Z,34.40
2022-11-20T20:00:10.032Z,42.30
2022-11-20T20:02:37.948Z,40.10
2022-11-20T20:05:06.387Z,40.50
2022-11-20T20:07:34.704Z,41.20
2022-11-20T20:10:02.919Z,46.00
2022-11-20T20:12:30.906Z,47.90
2022-11-20T20:14:59.008Z,42.90
2022-11-20T20:17:26.838Z,42.50
2022-11-20T20:19:55.227Z,44.00
2022-11-20T20:22:23.125Z,48.90
2022-11-20T20:24:52.224Z,50.90
2022-11-20T20:27:20.113Z,46.40
2022-11-20T20:29:48.702Z,43.90
2022-11-20T20:32:16.921Z,52.10
2022-11-20T20:34:45.171Z,56.20
2022-11-20T20:37:13.060Z,44.50
2022-11-20T20:39:40.959Z,44.30
2022-11-20T20:42:08.724Z,41.40
2022-11-20T20:44:55.293Z,41.30
2022-11-20T20:47:23.223Z,38.70
2022-11-20T20:49:51.102Z,38.60
2022-11-20T20:52:19.074Z,41.10
2022-11-20T20:54:46.956Z,38.70
2022-11-20T20:57:15.076Z,39.30
2022-11-20T20:59:42.996Z,40.30
2022-11-20T21:02:11.192Z,40.40
2022-11-20T21:04:39.472Z,35.40
2022-11-20T21:07:07.871Z,38.70
2022-11-20T21:09:35.886Z,36.70
2022-11-20T21:12:04.859Z,33.90
2022-11-20T21:14:33.066Z,36.30
2022-11-20T21:17:01.564Z,36.80
2022-11-20T21:19:29.547Z,39.80
2022-11-20T21:22:00.422Z,38.40
2022-11-20T21:24:29.797Z,40.40
2022-11-20T21:26:58.597Z,41.80
2022-11-20T21:29:28.505Z,44.90
2022-11-20T21:31:58.166Z,42.80
2022-11-20T21:34:26.783Z,37.50
2022-11-20T21:36:54.895Z,32.60
2022-11-20T21:39:23.214Z,35.70
2022-11-20T21:41:51.110Z,37.10
2022-11-20T21:44:34.338Z,37.30
2022-11-20T21:47:02.692Z,35.40
2022-11-20T21:49:30.968Z,39.20
2022-11-20T21:51:59.324Z,41.10
2022-11-20T21:54:27.609Z,39.30
2022-11-20T21:56:55.467Z,38.10
2022-11-20T21:59:23.813Z,43.40
2022-11-20T22:01:51.819Z,40.90
2022-11-20T22:04:21.391Z,42.10
2022-11-20T22:06:49.406Z,41.40
2022-11-20T22:09:17.358Z,33.90
2022-11-20T22:11:45.359Z,40.20
2022-11-20T22:14:22.723Z,42.30
2022-11-20T22:16:53.583Z,44.90
2022-11-20T22:19:22.976Z,38.60
2022-11-20T22:21:52.069Z,47.00
2022-11-20T22:24:22.455Z,39.50
2022-11-20T22:26:51.396Z,41.70
2022-11-20T22:29:21.361Z,48.00
2022-11-20T22:31:53.356Z,43.30
2022-11-20T22:34:22.167Z,49.70
2022-11-20T22:36:50.778Z,45.70
2022-11-20T22:39:18.791Z,46.00
2022-11-20T22:41:46.982Z,43.70
2022-11-20T22:44:16.346Z,43.00
2022-11-20T22:46:44.244Z,36.10
2022-11-20T22:49:12.532Z,43.90
2022-11-20T22:51:41.798Z,34.30
2022-11-20T22:54:13.139Z,35.60
2022-11-20T22:56:41.768Z,39.70
2022-11-20T22:59:09.871Z,35.00
2022-11-20T23:01:38.609Z,39.70
2022-11-20T23:04:09.870Z,39.60
2022-11-20T23:06:38.487Z,39.70
2022-11-20T23:09:07.649Z,39.00
2022-11-20T23:11:36.709Z,34.60
2022-11-20T23:14:08.458Z,36.00
2022-11-20T23:16:36.746Z,39.00
2022-11-20T23:19:08.016Z,39.30
2022-11-20T23:21:37.500Z,36.40
2022-11-20T23:24:06.518Z,35.20
2022-11-20T23:26:37.094Z,35.00
2022-11-20T23:29:05.908Z,29.80
2022-11-20T23:31:35.711Z,31.30
2022-11-20T23:34:04.907Z,26.40
2022-11-20T23:36:33.104Z,34.10
2022-11-20T23:39:00.888Z,31.70
2022-11-20T23:41:28.817Z,30.90
2022-11-20T23:43:56.657Z,30.80
2022-11-20T23:46:24.605Z,27.10
2022-11-20T23:48:52.502Z,25.50
2022-11-20T23:51:20.803Z,29.70
2022-11-20T23:53:49.019Z,29.30
2022-11-20T23:56:17.133Z,28.00
2022-11-20T23:58:45.419Z,27.70
